createdAt,value
2019-03-25T01:12:29.761Z,5.65
2019-03-25T01:14:59.996Z,5.10
2019-03-25T01:17:30.314Z,5.87
2019-03-25T01:20:00.476Z,7.95
2019-03-25T01:22:30.656Z,5.83
2019-03-25T01:25:02.039Z,6.30
2019-03-25T01:27:32.666Z,6.60
2019-03-25T01:30:02.895Z,5.33
2019-03-25T01:32:33.099Z,5.58
2019-03-25T01:35:03.337Z,7.03
2019-03-25T01:37:33.512Z,5.40
2019-03-25T01:40:03.698Z,5.37
2019-03-25T01:42:33.896Z,5.47
2019-03-25T01:45:04.176Z,5.40
2019-03-25T01:47:34.388Z,5.25
2019-03-25T01:50:04.717Z,5.55
2019-03-25T01:52:34.849Z,5.65
2019-03-25T01:55:13.286Z,5.83
2019-03-25T01:57:36.920Z,5.65
2019-03-25T02:00:08.245Z,6.35
2019-03-25T02:02:38.434Z,5.08
2019-03-25T02:05:08.655Z,4.35
2019-03-25T02:07:38.806Z,5.20
2019-03-25T02:10:10.051Z,4.60
2019-03-25T02:12:40.230Z,5.37
2019-03-25T02:15:10.602Z,3.87
2019-03-25T02:17:40.760Z,5.62
2019-03-25T02:20:10.968Z,6.83
2019-03-25T02:22:41.075Z,5.15
2019-03-25T02:25:11.411Z,5.10
2019-03-25T02:27:41.666Z,4.80
2019-03-25T02:30:11.992Z,5.30
2019-03-25T02:32:42.147Z,5.00
2019-03-25T02:35:12.420Z,5.50
2019-03-25T02:37:42.638Z,5.17
2019-03-25T02:40:13.007Z,4.62
2019-03-25T02:42:43.176Z,4.50
2019-03-25T02:45:13.557Z,4.65
2019-03-25T02:47:43.765Z,5.05
2019-03-25T02:50:14.419Z,5.17
2019-03-25T02:52:44.599Z,4.78
2019-03-25T02:55:14.773Z,4.35
2019-03-25T02:57:44.998Z,5.62
2019-03-25T03:00:16.781Z,5.47
2019-03-25T03:02:47.006Z,5.58
2019-03-25T03:05:17.199Z,4.72
2019-03-25T03:07:47.346Z,5.45
2019-03-25T03:10:17.469Z,5.15
2019-03-25T03:12:47.564Z,4.75
2019-03-25T03:15:17.818Z,5.92
2019-03-25T03:17:47.954Z,5.55
2019-03-25T03:20:18.840Z,6.03
2019-03-25T03:22:49.033Z,5.45
2019-03-25T03:25:19.209Z,4.60
2019-03-25T03:27:52.171Z,4.25
2019-03-25T03:30:22.349Z,4.92
2019-03-25T03:32:52.526Z,4.80
2019-03-25T03:35:22.685Z,4.67
2019-03-25T03:37:52.880Z,4.37
2019-03-25T03:40:23.316Z,4.45
2019-03-25T03:42:53.512Z,4.33
2019-03-25T03:45:23.652Z,4.70
2019-03-25T03:47:53.809Z,5.35
2019-03-25T03:50:28.701Z,3.67
2019-03-25T03:52:59.246Z,5.37
2019-03-25T03:55:29.964Z,4.05
2019-03-25T03:58:01.427Z,5.35
2019-03-25T04:00:33.187Z,5.30
2019-03-25T04:03:03.571Z,3.83
2019-03-25T04:05:33.856Z,6.45
2019-03-25T04:08:04.016Z,5.67
2019-03-25T04:10:34.429Z,4.50
2019-03-25T04:13:04.625Z,4.47
2019-03-25T04:15:34.845Z,6.53
2019-03-25T04:18:05.130Z,4.37
2019-03-25T04:20:35.287Z,5.40
2019-03-25T04:23:05.708Z,4.65
2019-03-25T04:25:35.970Z,4.50
2019-03-25T04:28:06.182Z,5.12
2019-03-25T04:30:43.723Z,5.58
2019-03-25T04:33:13.849Z,7.20
2019-03-25T04:35:44.114Z,4.95
2019-03-25T04:38:14.324Z,5.42
2019-03-25T04:40:44.560Z,4.92
2019-03-25T04:43:14.644Z,4.60
2019-03-25T04:45:44.786Z,5.42
2019-03-25T04:48:14.878Z,6.15
2019-03-25T04:50:45.123Z,5.85
2019-03-25T04:53:15.383Z,4.53
2019-03-25T04:55:45.577Z,4.70
2019-03-25T04:58:15.933Z,5.03
2019-03-25T05:00:46.070Z,3.87
2019-03-25T05:03:16.267Z,4.50
2019-03-25T05:05:46.434Z,4.45
2019-03-25T05:08:16.559Z,5.85
2019-03-25T05:10:46.874Z,4.40
2019-03-25T05:13:17.054Z,6.53
2019-03-25T05:15:49.343Z,4.62
2019-03-25T05:18:19.491Z,4.40
2019-03-25T05:20:49.635Z,5.00
2019-03-25T05:23:19.739Z,4.17
2019-03-25T05:25:49.870Z,5.08
2019-03-25T05:28:20.017Z,5.58
2019-03-25T05:30:50.116Z,6.78
2019-03-25T05:33:20.243Z,4.37
2019-03-25T05:35:50.584Z,4.47
2019-03-25T05:38:20.740Z,5.80
2019-03-25T05:40:50.905Z,5.60
2019-03-25T05:43:21.370Z,4.92
2019-03-25T05:45:51.739Z,6.10
2019-03-25T05:48:21.919Z,5.25
2019-03-25T05:50:52.168Z,5.87
2019-03-25T05:53:22.318Z,5.85
2019-03-25T05:55:52.437Z,7.28
2019-03-25T05:58:22.667Z,6.75
2019-03-25T06:00:53.094Z,8.03
2019-03-25T06:03:23.232Z,8.00
2019-03-25T06:05:53.375Z,8.08
2019-03-25T06:08:23.648Z,7.05
2019-03-25T06:10:53.912Z,8.45
2019-03-25T06:13:24.065Z,7.80
2019-03-25T06:15:54.300Z,9.10
2019-03-25T06:18:24.417Z,7.12
2019-03-25T06:20:54.661Z,8.93
2019-03-25T06:23:25.219Z,9.25
2019-03-25T06:25:59.828Z,7.35
2019-03-25T06:28:29.943Z,7.35
2019-03-25T06:31:00.221Z,9.60
2019-03-25T06:33:30.491Z,11.03
2019-03-25T06:36:00.704Z,9.73
2019-03-25T06:38:30.908Z,8.98
2019-03-25T06:41:01.129Z,9.98
2019-03-25T06:43:31.346Z,7.05
2019-03-25T06:46:01.595Z,6.45
2019-03-25T06:48:31.804Z,6.58
2019-03-25T06:51:02.056Z,6.65
2019-03-25T06:53:32.250Z,5.65
2019-03-25T06:56:02.517Z,5.45
2019-03-25T06:58:32.673Z,6.20
2019-03-25T07:01:02.861Z,7.42
2019-03-25T07:03:33.160Z,7.37
2019-03-25T07:06:03.360Z,7.85
2019-03-25T07:08:35.648Z,7.28
2019-03-25T07:11:06.405Z,6.70
2019-03-25T07:13:36.603Z,9.15
2019-03-25T07:16:06.790Z,8.73
2019-03-25T07:18:51.479Z,10.53
2019-03-25T07:21:22.136Z,8.93
2019-03-25T07:23:52.250Z,11.08
2019-03-25T07:26:22.659Z,9.80
2019-03-25T07:28:52.925Z,8.73
2019-03-25T07:31:23.126Z,9.33
2019-03-25T07:33:53.444Z,9.35
2019-03-25T07:36:23.600Z,10.50
2019-03-25T07:38:53.803Z,11.57
2019-03-25T07:41:24.061Z,9.80
2019-03-25T07:43:54.286Z,10.32
2019-03-25T07:46:24.518Z,8.80
2019-03-25T07:48:54.784Z,9.23
2019-03-25T07:51:24.981Z,10.03
2019-03-25T07:53:55.271Z,8.35
2019-03-25T07:56:25.556Z,9.13
2019-03-25T07:58:55.680Z,8.63
2019-03-25T08:01:25.903Z,7.87
2019-03-25T08:03:58.400Z,9.50
2019-03-25T08:06:28.606Z,8.45
2019-03-25T08:09:03.706Z,8.53
2019-03-25T08:11:30.750Z,7.30
2019-03-25T08:14:28.889Z,7.97
2019-03-25T08:17:01.479Z,9.85
2019-03-25T08:20:00.429Z,7.70
2019-03-25T08:22:16.135Z,7.75
2019-03-25T08:24:46.487Z,8.03
2019-03-25T08:27:16.865Z,7.35
2019-03-25T08:29:47.100Z,7.00
2019-03-25T08:32:17.411Z,6.35
2019-03-25T08:34:47.653Z,6.60
2019-03-25T08:37:17.914Z,6.35
2019-03-25T08:39:48.122Z,5.40
2019-03-25T08:42:18.414Z,6.40
2019-03-25T08:44:48.570Z,6.45
2019-03-25T08:47:18.876Z,6.45
2019-03-25T08:49:49.147Z,6.22
2019-03-25T08:52:19.476Z,6.00
2019-03-25T08:54:49.810Z,4.85
2019-03-25T08:57:20.194Z,5.37
2019-03-25T08:59:50.427Z,5.40
2019-03-25T09:02:20.710Z,6.25
2019-03-25T09:04:51.338Z,10.32
2019-03-25T09:07:21.807Z,4.30
2019-03-25T09:09:52.024Z,4.60
2019-03-25T09:12:22.247Z,5.60
2019-03-25T09:14:52.560Z,4.58
2019-03-25T09:17:22.721Z,5.10
2019-03-25T09:19:52.983Z,5.20
2019-03-25T09:22:23.214Z,4.85
2019-03-25T09:24:53.637Z,4.35
2019-03-25T09:27:23.782Z,4.55
2019-03-25T09:29:53.968Z,4.45
2019-03-25T09:32:24.301Z,5.15
2019-03-25T09:34:54.467Z,4.75
2019-03-25T09:37:24.853Z,4.22
2019-03-25T09:39:55.132Z,4.70
2019-03-25T09:42:25.440Z,3.67
2019-03-25T09:44:55.650Z,3.58
2019-03-25T09:47:25.923Z,3.10
2019-03-25T09:49:56.235Z,3.62
2019-03-25T09:52:37.925Z,4.83
2019-03-25T09:54:58.527Z,3.15
2019-03-25T09:57:28.849Z,3.83
2019-03-25T09:59:59.096Z,3.83
2019-03-25T10:02:50.461Z,2.60
2019-03-25T10:05:20.878Z,3.20
2019-03-25T10:08:40.357Z,2.75
2019-03-25T10:11:33.988Z,3.30
2019-03-25T10:14:19.095Z,3.08
2019-03-25T10:20:24.305Z,3.60
2019-03-25T10:23:22.993Z,3.90
2019-03-25T10:26:44.479Z,3.50
2019-03-25T10:29:56.361Z,2.58
2019-03-25T10:32:26.614Z,3.85
2019-03-25T10:34:56.913Z,2.98
2019-03-25T10:37:27.143Z,2.77
2019-03-25T10:39:57.274Z,2.33
2019-03-25T10:42:27.488Z,2.95
2019-03-25T10:44:57.780Z,2.80
2019-03-25T10:47:28.047Z,2.60
2019-03-25T10:49:58.288Z,2.08
2019-03-25T10:52:28.571Z,2.42
2019-03-25T10:57:29.222Z,2.27
2019-03-25T10:59:59.602Z,2.25
2019-03-25T11:02:29.867Z,2.20
2019-03-25T11:05:00.184Z,3.90
2019-03-25T11:07:30.671Z,2.98
2019-03-25T11:10:01.023Z,2.27
2019-03-25T11:12:31.275Z,2.20
2019-03-25T11:15:01.526Z,9.35
2019-03-25T11:17:31.833Z,2.58
2019-03-25T11:20:02.198Z,3.05
2019-03-25T11:22:32.481Z,2.25
2019-03-25T11:25:02.815Z,2.00
2019-03-25T11:27:33.143Z,2.40
2019-03-25T11:30:05.572Z,1.75
2019-03-25T11:32:35.424Z,1.90
2019-03-25T11:35:06.051Z,1.92
2019-03-25T11:37:36.233Z,1.62
2019-03-25T11:40:07.245Z,1.70
2019-03-25T11:42:37.433Z,2.80
2019-03-25T11:45:10.006Z,2.20
2019-03-25T11:47:40.326Z,2.70
2019-03-25T11:50:12.032Z,2.77
2019-03-25T11:52:42.418Z,1.92
2019-03-25T11:55:12.849Z,1.75
2019-03-25T11:57:43.210Z,1.92
2019-03-25T12:00:13.908Z,2.42
2019-03-25T12:02:44.203Z,2.80
2019-03-25T12:05:14.559Z,1.82
2019-03-25T12:07:45.416Z,2.58
2019-03-25T12:10:17.113Z,2.08
2019-03-25T12:12:47.599Z,2.00
2019-03-25T12:15:17.761Z,2.08
2019-03-25T12:17:48.038Z,1.85
2019-03-25T12:20:18.399Z,2.27
2019-03-25T12:22:48.721Z,1.90
2019-03-25T12:25:19.047Z,1.40
2019-03-25T12:27:49.513Z,2.00
2019-03-25T12:30:20.275Z,2.00
2019-03-25T12:32:50.569Z,1.67
2019-03-25T12:35:20.818Z,1.72
2019-03-25T12:37:51.324Z,2.30
2019-03-25T12:40:21.573Z,1.82
2019-03-25T12:42:51.767Z,2.37
2019-03-25T12:45:22.109Z,2.02
2019-03-25T12:47:52.367Z,1.98
2019-03-25T12:50:22.741Z,1.95
2019-03-25T12:52:54.558Z,1.55
2019-03-25T12:55:24.822Z,2.25
2019-03-25T12:57:55.203Z,1.52
2019-03-25T13:00:37.177Z,2.02
2019-03-25T13:03:07.745Z,1.80
2019-03-25T13:05:38.202Z,1.57
2019-03-25T13:08:08.585Z,1.62
2019-03-25T13:10:38.735Z,1.40
2019-03-25T13:13:09.016Z,1.15
2019-03-25T13:15:39.170Z,1.10
2019-03-25T13:18:09.466Z,1.50
2019-03-25T13:20:39.645Z,1.27
2019-03-25T13:23:09.860Z,1.17
2019-03-25T13:25:40.174Z,1.42
2019-03-25T13:28:10.390Z,1.32
2019-03-25T13:30:40.597Z,2.75
2019-03-25T13:33:10.829Z,1.17
2019-03-25T13:35:41.293Z,1.12
2019-03-25T13:38:12.403Z,1.80
2019-03-25T13:40:43.018Z,3.35
2019-03-25T13:43:13.489Z,3.50
2019-03-25T13:45:43.775Z,0.90
2019-03-25T13:48:14.012Z,2.08
2019-03-25T13:50:44.384Z,2.00
2019-03-25T13:53:14.540Z,5.05
2019-03-25T13:55:44.754Z,7.37
2019-03-25T13:58:15.087Z,2.15
2019-03-25T14:00:46.350Z,2.20
2019-03-25T14:03:16.572Z,1.32
2019-03-25T14:05:46.794Z,1.95
2019-03-25T14:08:17.088Z,1.17
2019-03-25T14:10:47.394Z,2.55
2019-03-25T14:13:17.698Z,1.50
2019-03-25T14:15:47.956Z,2.05
2019-03-25T14:18:18.117Z,1.90
2019-03-25T14:20:48.332Z,1.95
2019-03-25T14:23:18.536Z,2.35
2019-03-25T14:25:48.764Z,1.95
2019-03-25T14:28:19.597Z,2.05
2019-03-25T14:30:49.944Z,1.52
2019-03-25T14:33:20.168Z,1.90
2019-03-25T14:35:50.594Z,2.08
2019-03-25T14:38:20.864Z,1.65
2019-03-25T14:40:51.134Z,1.60
2019-03-25T14:43:21.353Z,1.85
2019-03-25T14:45:51.643Z,1.80
2019-03-25T14:48:21.827Z,2.25
2019-03-25T14:50:52.114Z,2.17
2019-03-25T14:53:22.405Z,3.60
2019-03-25T14:55:52.713Z,1.15
2019-03-25T14:58:23.082Z,2.02
2019-03-25T15:00:53.313Z,2.70
2019-03-25T15:03:23.479Z,2.17
2019-03-25T15:05:53.750Z,2.33
2019-03-25T15:08:24.166Z,1.57
2019-03-25T15:10:54.382Z,2.55
2019-03-25T15:13:24.603Z,2.65
2019-03-25T15:15:54.924Z,2.08
2019-03-25T15:18:25.174Z,1.75
2019-03-25T15:20:55.786Z,1.07
2019-03-25T15:23:26.044Z,1.17
2019-03-25T15:25:57.621Z,1.20
2019-03-25T15:28:27.959Z,1.17
2019-03-25T15:30:58.171Z,0.90
2019-03-25T15:33:28.419Z,1.70
2019-03-25T15:35:58.580Z,2.35
2019-03-25T15:38:29.082Z,2.10
2019-03-25T15:40:59.441Z,1.75
2019-03-25T15:43:29.790Z,1.35
2019-03-25T15:46:00.020Z,1.70
2019-03-25T15:48:30.232Z,0.90
2019-03-25T15:51:00.433Z,1.92
2019-03-25T15:53:30.731Z,1.90
2019-03-25T15:56:00.974Z,1.45
2019-03-25T15:58:31.294Z,1.45
2019-03-25T16:01:01.605Z,1.82
2019-03-25T16:03:31.785Z,2.33
2019-03-25T16:06:02.351Z,1.65
2019-03-25T16:08:32.677Z,2.85
2019-03-25T16:11:03.030Z,1.45
2019-03-25T16:13:33.246Z,2.27
2019-03-25T16:16:10.367Z,1.60
2019-03-25T16:18:41.271Z,2.35
2019-03-25T16:21:11.647Z,2.12
2019-03-25T16:23:43.832Z,2.65
2019-03-25T16:26:14.163Z,2.05
2019-03-25T16:28:44.311Z,2.70
2019-03-25T16:31:14.673Z,1.85
2019-03-25T16:33:44.935Z,1.62
2019-03-25T16:36:15.162Z,4.67
2019-03-25T16:38:45.463Z,1.60
2019-03-25T16:41:15.996Z,2.37
2019-03-25T16:43:46.343Z,4.08
2019-03-25T16:46:16.834Z,1.87
2019-03-25T16:48:47.838Z,2.50
2019-03-25T16:51:18.136Z,3.37
2019-03-25T16:53:48.325Z,2.08
2019-03-25T16:56:18.636Z,1.70
2019-03-25T16:58:50.844Z,2.47
2019-03-25T17:01:22.048Z,2.42
2019-03-25T17:03:52.290Z,2.25
2019-03-25T17:06:22.535Z,3.00
2019-03-25T17:08:52.782Z,2.12
2019-03-25T17:11:23.040Z,2.15
2019-03-25T17:13:53.174Z,2.67
2019-03-25T17:16:24.206Z,2.60
2019-03-25T17:18:54.420Z,2.22
2019-03-25T17:21:24.643Z,2.00
2019-03-25T17:23:54.865Z,2.75
2019-03-25T17:26:25.157Z,2.15
2019-03-25T17:28:55.459Z,3.45
2019-03-25T17:31:26.252Z,2.62
2019-03-25T17:33:56.455Z,2.80
2019-03-25T17:36:26.785Z,3.00
2019-03-25T17:38:57.032Z,2.75
2019-03-25T17:41:27.462Z,2.75
2019-03-25T17:43:57.671Z,2.10
2019-03-25T17:46:27.911Z,1.90
2019-03-25T17:48:58.146Z,1.72
2019-03-25T17:51:28.541Z,1.80
2019-03-25T17:53:58.712Z,3.05
2019-03-25T17:56:29.091Z,2.90
2019-03-25T17:58:59.316Z,2.50
2019-03-25T18:01:35.477Z,2.60
2019-03-25T18:04:06.111Z,2.47
2019-03-25T18:06:36.475Z,2.47
2019-03-25T18:09:09.845Z,2.92
2019-03-25T18:11:40.038Z,2.87
2019-03-25T18:14:10.297Z,2.05
2019-03-25T18:16:40.513Z,2.10
2019-03-25T18:19:10.887Z,2.45
2019-03-25T18:21:41.179Z,1.82
2019-03-25T18:24:11.367Z,2.62
2019-03-25T18:26:41.617Z,2.45
2019-03-25T18:29:11.839Z,3.00
2019-03-25T18:31:43.803Z,2.22
2019-03-25T18:34:14.621Z,2.77
2019-03-25T18:36:44.867Z,2.67
2019-03-25T18:39:15.146Z,2.58
2019-03-25T18:41:45.525Z,1.82
2019-03-25T18:44:15.855Z,2.62
2019-03-25T18:46:46.148Z,2.95
2019-03-25T18:49:16.471Z,1.90
2019-03-25T18:51:46.695Z,2.15
2019-03-25T18:54:17.091Z,2.12
2019-03-25T18:56:47.514Z,3.72
2019-03-25T18:59:17.817Z,3.17
2019-03-25T19:01:54.506Z,2.92
2019-03-25T19:04:20.312Z,2.58
2019-03-25T19:06:50.490Z,2.65
2019-03-25T19:09:20.854Z,2.58
2019-03-25T19:12:00.373Z,1.77
2019-03-25T19:14:30.711Z,2.80
2019-03-25T19:17:01.018Z,2.47
2019-03-25T19:19:31.120Z,2.10
2019-03-25T19:22:01.374Z,2.98
2019-03-25T19:24:31.531Z,2.33
2019-03-25T19:27:01.981Z,3.10
2019-03-25T19:29:38.715Z,2.35
2019-03-25T19:32:08.993Z,2.25
2019-03-25T19:34:39.296Z,2.65
2019-03-25T19:37:09.446Z,2.77
2019-03-25T19:39:39.787Z,2.15
2019-03-25T19:42:10.055Z,2.25
2019-03-25T19:44:40.384Z,2.87
2019-03-25T19:47:10.678Z,2.30
2019-03-25T19:49:40.923Z,2.37
2019-03-25T19:52:11.175Z,2.77
2019-03-25T19:54:41.640Z,3.80
2019-03-25T19:57:11.912Z,3.42
2019-03-25T19:59:42.326Z,4.00
2019-03-25T20:02:19.042Z,4.42
2019-03-25T20:04:44.574Z,4.78
2019-03-25T20:07:14.866Z,4.30
2019-03-25T20:09:45.092Z,4.22
2019-03-25T20:12:15.280Z,4.95
2019-03-25T20:14:45.587Z,3.60
2019-03-25T20:17:15.775Z,3.62
2019-03-25T20:19:46.059Z,3.10
2019-03-25T20:22:16.434Z,2.77
2019-03-25T20:24:46.679Z,3.50
2019-03-25T20:27:16.991Z,3.60
2019-03-25T20:29:47.253Z,3.47
2019-03-25T20:32:17.872Z,4.78
2019-03-25T20:34:48.229Z,3.50
2019-03-25T20:37:18.660Z,3.67
2019-03-25T20:39:48.855Z,4.75
2019-03-25T20:42:19.371Z,3.77
2019-03-25T20:44:49.716Z,3.60
2019-03-25T20:47:20.017Z,3.33
2019-03-25T20:49:50.343Z,4.10
2019-03-25T20:52:20.569Z,3.65
2019-03-25T20:54:50.803Z,4.03
2019-03-25T20:57:20.908Z,3.30
2019-03-25T20:59:51.309Z,3.30
2019-03-25T21:02:21.528Z,4.60
2019-03-25T21:04:51.628Z,3.52
2019-03-25T21:07:21.796Z,3.95
2019-03-25T21:09:52.000Z,3.58
2019-03-25T21:12:22.207Z,3.83
2019-03-25T21:14:52.408Z,3.35
2019-03-25T21:17:22.619Z,3.33
2019-03-25T21:19:52.788Z,2.72
2019-03-25T21:22:22.969Z,3.92
2019-03-25T21:24:53.216Z,4.20
2019-03-25T21:27:31.210Z,3.40
2019-03-25T21:30:01.433Z,3.60
2019-03-25T21:32:31.742Z,3.08
2019-03-25T21:35:02.086Z,3.08
2019-03-25T21:37:32.451Z,2.92
2019-03-25T21:40:02.860Z,4.50
2019-03-25T21:42:35.887Z,3.52
2019-03-25T21:45:06.536Z,3.98
2019-03-25T21:47:36.780Z,3.60
2019-03-25T21:50:08.906Z,4.00
2019-03-25T21:52:39.187Z,4.35
2019-03-25T21:55:09.557Z,3.85
2019-03-25T21:57:39.884Z,3.98
2019-03-25T22:00:10.527Z,2.77
2019-03-25T22:02:43.565Z,4.55
2019-03-25T22:05:13.780Z,3.58
2019-03-25T22:07:43.945Z,3.65
2019-03-25T22:10:15.322Z,3.55
2019-03-25T22:12:45.605Z,3.35
2019-03-25T22:15:15.864Z,3.58
2019-03-25T22:17:46.214Z,4.53
2019-03-25T22:20:16.614Z,3.42
2019-03-25T22:22:46.920Z,4.20
2019-03-25T22:25:17.128Z,4.08
2019-03-25T22:27:47.386Z,3.95
2019-03-25T22:30:17.648Z,4.87
2019-03-25T22:32:48.627Z,3.72
2019-03-25T22:35:18.802Z,4.55
2019-03-25T22:37:48.995Z,4.87
2019-03-25T22:40:19.221Z,4.80
2019-03-25T22:42:49.412Z,3.58
2019-03-25T22:45:28.266Z,4.17
2019-03-25T22:47:58.390Z,4.60
2019-03-25T22:50:32.671Z,3.87
2019-03-25T22:53:02.861Z,3.98
2019-03-25T22:55:33.057Z,6.42
2019-03-25T22:58:03.243Z,5.05
2019-03-25T23:00:45.820Z,4.87
2019-03-25T23:03:16.542Z,6.05
2019-03-25T23:05:46.659Z,4.83
2019-03-25T23:08:16.915Z,6.10
2019-03-25T23:10:47.114Z,6.10
2019-03-25T23:13:17.303Z,4.83
2019-03-25T23:15:47.552Z,5.53
2019-03-25T23:18:17.786Z,5.37
2019-03-25T23:20:50.416Z,5.12
2019-03-25T23:23:20.682Z,5.35
2019-03-25T23:25:50.871Z,5.95
2019-03-25T23:28:21.114Z,6.25
2019-03-25T23:30:51.262Z,5.62
2019-03-25T23:33:21.368Z,6.30
2019-03-25T23:35:51.492Z,5.05
2019-03-25T23:38:21.697Z,6.30
2019-03-25T23:40:51.888Z,6.42
2019-03-25T23:43:22.119Z,6.30
2019-03-25T23:45:52.308Z,6.67
2019-03-25T23:48:22.481Z,6.50
2019-03-25T23:50:52.645Z,6.50
2019-03-25T23:53:23.011Z,6.95
2019-03-25T23:55:53.183Z,7.37
2019-03-25T23:58:23.393Z,7.28
